Date,TemperatureHighF,TemperatureAvgF,TemperatureLowF,DewpointHighF,DewpointAvgF,DewpointLowF,HumidityHigh,HumidityAvg,HumidityLow,PressureMaxIn,PressureMinIn,WindSpeedMaxMPH,WindSpeedAvgMPH,GustSpeedMaxMPH,PrecipitationSumIn
2013-1-1,30,22,10,21,12,5,84,67,47,30.18,30.02,18,3,18,0.00
2013-1-2,25,17,6,18,12,2,88,79,68,30.23,30.10,9,1,11,0.00
2013-1-3,30,22,14,26,16,6,86,75,65,30.19,30.08,14,4,17,0.00
2013-1-4,30,26,22,24,19,15,84,73,61,30.20,30.05,29,6,29,0.00
2013-1-5,33,26,13,31,21,11,93,83,65,30.32,30.05,13,2,18,0.00
2013-1-6,36,34,33,33,30,26,93,86,77,30.26,29.92,17,5,21,0.00
2013-1-7,37,32,29,26,24,22,81,73,63,30.40,30.17,19,4,24,0.00
2013-1-8,38,30,24,28,24,20,91,80,63,30.27,30.18,12,2,12,0.00
2013-1-9,47,38,27,34,28,23,93,67,39,30.45,30.05,27,6,29,0.00
2013-1-10,40,33,23,33,27,21,95,81,60,30.59,30.20,12,2,12,0.00
2013-1-11,58,46,36,54,44,33,100,93,76,30.20,29.76,12,2,21,0.00
2013-1-12,60,52,44,52,48,43,100,88,70,29.92,29.83,14,2,18,0.00
2013-1-13,53,41,33,53,40,30,100,96,90,30.04,29.70,16,3,24,0.00
2013-1-14,33,26,18,30,18,14,89,74,59,30.45,30.04,22,6,24,0.00
2013-1-15,32,23,14,20,17,12,91,78,57,30.46,30.17,9,1,11,0.00
2013-1-16,40,30,21,27,20,16,93,70,41,30.17,29.83,19,4,21,0.00
2013-1-17,39,32,20,28,20,4,81,63,46,30.33,29.95,21,4,24,0.00
2013-1-18,36,27,18,23,14,7,67,58,45,30.47,30.00,18,2,26,0.00
2013-1-19,47,41,35,34,29,23,74,61,51,30.00,29.59,22,6,27,0.00
2013-1-20,44,24,18,34,10,3,75,55,42,30.21,29.56,31,9,40,0.00
2013-1-21,19,14,5,15,6,-3,87,70,57,30.18,29.98,14,1,18,0.00
2013-1-22,12,5,-4,4,-4,-11,80,64,49,30.33,30.15,14,1,17,0.00
2013-1-23,18,11,3,11,4,-2,86,72,59,30.33,30.12,7,0,12,0.00
2013-1-24,22,14,9,10,4,-2,86,65,38,30.61,30.13,6,0,12,0.00
2013-1-25,21,18,15,16,12,5,90,79,65,30.53,30.05,8,0,11,0.00
2013-1-26,27,21,16,19,14,10,91,76,53,30.47,30.07,9,0,12,0.00
2013-1-27,30,21,11,27,16,8,94,80,57,30.51,30.14,14,1,15,0.00
2013-1-28,48,40,30,48,39,27,100,98,91,30.17,29.85,12,2,17,0.00
2013-1-29,58,49,38,58,49,38,100,99,96,30.02,29.47,15,3,20,0.00
2013-1-30,62,52,34,57,49,28,100,93,81,29.47,29.11,32,6,36,0.00
2013-1-31,34,23,17,28,16,11,90,74,59,29.90,29.22,33,13,36,0.00
2013-2-1,19,15,9,14,8,1,88,73,61,30.32,29.90,21,8,21,0.00
2013-2-2,24,18,13,19,12,5,88,79,66,30.27,29.97,12,3,15,0.00
2013-2-3,22,14,5,17,8,1,87,75,60,30.04,29.88,19,4,24,0.00
2013-2-4,24,20,17,19,15,7,89,82,64,30.05,29.90,7,1,9,0.00
2013-2-5,28,23,18,26,18,14,92,82,60,29.96,29.84,12,2,12,0.00
2013-2-6,33,24,11,26,16,8,92,72,46,30.34,29.95,15,2,17,0.00
2013-2-7,38,30,24,28,23,18,82,75,64,30.30,29.87,18,4,18,0.00
2013-2-8,32,28,20,30,23,14,95,82,69,30.36,29.76,18,4,24,0.00
2013-2-9,33,22,9,21,16,6,90,78,55,30.47,30.32,12,2,12,0.00
2013-2-10,38,30,17,36,25,14,94,82,63,30.32,29.70,13,3,15,0.00
2013-2-11,46,39,32,44,32,24,94,76,63,29.88,29.56,24,10,29,0.00
2013-2-12,34,32,29,25,23,21,76,71,65,30.06,29.88,18,7,21,0.00
2013-2-13,41,30,27,26,22,20,88,72,50,29.94,29.74,11,2,12,0.00
2013-2-14,40,35,27,36,30,24,94,84,71,29.84,29.69,23,5,27,0.00
2013-2-15,36,29,24,28,17,12,76,61,48,30.13,29.84,19,7,24,0.00
2013-2-16,26,21,16,21,14,9,85,74,55,30.12,29.99,18,3,21,0.00
2013-2-17,25,17,10,14,7,4,86,66,44,30.24,30.07,18,4,18,0.00
2013-2-18,45,34,13,34,24,6,77,66,49,30.24,29.62,16,5,20,0.00
2013-2-19,46,29,18,42,23,11,95,78,60,29.95,29.42,26,11,29,0.00
2013-2-20,23,20,17,15,10,6,78,65,56,30.25,29.95,27,10,27,0.00
2013-2-21,30,23,21,17,14,11,80,69,51,30.40,30.25,14,4,17,0.00
2013-2-22,37,29,22,37,27,17,99,91,76,30.31,29.90,16,4,17,0.00
2013-2-23,35,30,21,34,22,16,97,72,57,29.94,29.88,17,4,18,0.00
2013-2-24,36,29,22,26,22,17,89,76,61,30.16,29.91,17,4,18,0.00
2013-2-25,42,30,19,31,22,17,95,74,49,30.24,30.10,12,1,12,0.00
2013-2-26,36,32,27,36,28,21,99,84,67,30.14,29.50,17,3,17,0.00
2013-2-27,39,37,35,39,36,35,100,99,96,29.58,29.43,11,1,14,0.00
2013-2-28,38,34,30,38,33,25,100,96,80,29.95,29.55,13,3,20,0.00
2013-3-1,30,28,26,25,21,19,81,77,73,30.12,29.95,14,3,18,0.00
2013-3-2,29,26,24,21,19,16,83,76,69,30.10,30.06,11,2,15,0.00
2013-3-3,32,24,16,18,15,12,87,70,48,30.08,30.00,20,4,21,0.00
2013-3-4,37,25,15,19,15,11,87,69,42,30.18,30.07,11,1,12,0.00
2013-3-5,38,28,19,26,21,16,92,77,59,30.14,29.83,18,3,21,0.00
2013-3-6,42,34,28,30,27,22,85,74,57,30.20,29.83,9,1,10,0.00
2013-3-7,39,34,25,31,26,18,85,73,56,30.41,30.20,14,2,16,0.00
2013-3-8,47,33,23,28,23,18,87,68,43,30.51,30.40,12,1,12,0.00
2013-3-9,44,35,24,32,28,22,95,77,56,30.44,30.05,16,3,16,0.00
2013-3-10,37,36,36,32,32,31,84,83,82,30.05,30.02,1,0,2,0.00
2013-3-11,56,48,38,50,43,32,96,81,55,29.80,29.46,36,6,36,0.00
2013-3-12,40,35,29,33,29,25,89,79,67,29.94,29.69,20,5,24,0.00
2013-3-13,32,30,26,27,21,13,91,70,51,30.20,29.86,24,9,30,0.00
2013-3-14,42,32,24,22,17,12,73,56,37,30.28,30.09,17,5,18,0.00
2013-3-15,38,34,31,30,26,21,82,74,67,30.09,29.91,14,4,15,0.00
2013-3-16,36,31,28,35,27,20,96,84,71,30.06,29.76,12,2,12,0.00
2013-3-17,36,28,19,34,19,10,94,70,47,30.28,30.05,19,3,19,0.00
2013-3-18,36,32,23,36,29,18,100,91,76,30.20,29.55,17,4,27,0.00
2013-3-19,35,28,24,35,19,13,100,70,58,29.95,29.62,28,12,38,0.00
2013-3-20,32,26,19,18,14,7,73,61,48,29.97,29.90,23,9,27,0.00
2013-3-21,33,25,16,23,17,9,83,72,59,29.95,29.88,22,9,26,0.00
2013-3-22,41,32,27,22,20,16,81,61,42,30.03,29.94,23,6,24,0.00
2013-3-23,41,32,21,25,22,18,91,69,48,30.11,30.02,17,2,17,0.00
2013-3-24,39,31,24,27,23,18,92,73,49,30.06,29.62,12,2,15,0.00
2013-3-25,40,35,30,31,26,23,89,72,59,29.90,29.55,13,3,16,0.00
2013-3-26,45,38,34,31,28,26,79,67,50,30.11,29.90,17,6,21,0.00
2013-3-27,47,39,31,30,26,23,81,61,40,30.19,30.11,22,9,27,0.00
2013-3-28,54,42,31,28,25,21,75,53,29,30.26,30.19,21,6,21,0.00
2013-3-29,56,42,31,27,22,18,70,47,24,30.29,30.18,13,4,18,0.00
2013-3-30,59,43,27,31,24,13,80,51,19,30.22,29.93,17,3,17,0.00
2013-3-31,61,47,36,45,34,27,88,64,30,29.93,29.60,22,5,28,0.02
2013-4-1,45,34,28,32,17,9,73,50,28,30.11,29.67,24,10,27,0.00
2013-4-2,42,30,23,18,14,10,74,52,27,30.19,30.11,22,7,24,0.00
2013-4-14,49,40,30,38,33,27,92,76,62,30.12,29.94,16,2,16,0.01
2013-4-15,69,55,35,54,45,33,93,70,52,29.97,29.85,15,3,18,0.00
2013-4-16,63,56,50,53,45,34,94,68,39,30.19,29.84,13,2,15,0.32
2013-4-17,58,48,42,43,37,31,93,65,47,30.32,30.05,7,1,12,1.10
2013-4-18,80,59,44,66,54,42,96,86,54,30.06,29.56,10,2,20,1.05
2013-4-19,59,46,37,58,41,30,97,83,67,29.75,29.30,10,3,19,0.28
2013-4-20,42,36,31,32,24,18,91,62,46,30.45,29.75,8,3,17,0.00
2013-4-21,49,37,24,33,25,21,93,64,39,30.64,30.45,7,1,16,0.00
2013-4-22,62,47,30,38,31,21,96,59,21,30.48,30.19,6,1,10,0.00
2013-4-23,72,55,38,54,42,34,96,66,36,30.19,29.78,7,1,17,0.27
2013-4-24,55,42,36,54,39,29,96,90,73,30.14,29.69,6,2,17,0.48
2013-4-25,53,41,31,42,32,27,91,72,42,30.35,30.11,8,2,17,0.05
2013-4-26,60,45,29,39,33,27,93,66,43,30.47,30.34,6,1,12,0.00
2013-4-27,68,54,35,44,37,30,97,60,25,30.37,30.08,6,1,12,0.00
2013-4-28,54,52,48,54,46,34,98,82,54,30.09,29.81,4,0,7,0.29
2013-4-29,70,59,53,56,54,52,98,84,59,29.92,29.81,5,0,8,0.02
2013-4-30,71,61,52,58,54,51,96,79,58,30.06,29.91,7,1,12,0.00
2013-5-1,81,66,49,60,54,48,97,69,39,30.20,30.04,6,1,9,0.00
2013-5-2,78,65,52,57,50,43,86,60,37,30.22,30.11,7,1,12,0.00
2013-5-3,78,66,56,56,45,32,64,49,20,30.11,30.02,7,1,14,0.00
2013-5-4,72,64,54,48,42,35,76,47,28,30.10,30.02,7,1,14,0.00
2013-5-5,74,63,52,45,40,33,71,46,24,30.08,29.99,7,1,12,0.00
2013-5-6,77,62,46,51,43,39,82,52,34,30.04,29.94,6,0,9,0.00
2013-5-7,78,64,50,55,48,40,77,58,38,30.03,29.95,7,0,10,0.00
2013-5-8,81,65,56,60,52,44,91,64,34,29.99,29.89,7,0,10,0.10
2013-5-9,81,66,51,58,52,43,97,64,29,29.94,29.86,4,0,7,0.00
2013-5-10,75,61,44,63,55,40,96,80,59,29.88,29.70,5,1,12,0.19
2013-5-11,62,48,40,49,42,34,90,80,54,29.89,29.72,6,1,14,0.02
2013-5-12,49,42,34,34,30,25,86,65,45,30.09,29.87,6,2,15,0.00
2013-5-13,56,43,28,32,27,23,93,58,29,30.18,30.08,4,0,8,0.00
2013-5-14,77,58,42,52,42,32,74,57,36,30.11,29.70,7,1,12,0.00
2013-5-15,84,72,56,60,50,42,95,51,26,29.75,29.56,6,2,13,0.00
2013-5-16,85,69,51,49,46,38,85,47,24,29.98,29.74,5,1,9,0.00
2013-5-17,76,62,49,49,43,37,76,51,32,30.12,29.98,6,0,9,0.00
2013-5-18,83,67,55,53,45,38,70,48,22,30.12,30.00,6,1,9,0.00
2013-5-19,88,70,55,65,57,46,79,63,40,30.01,29.85,4,0,9,0.00
2013-5-20,90,76,62,72,65,59,95,71,40,29.89,29.73,6,1,12,0.00
2013-5-21,88,78,69,68,64,59,92,64,38,29.78,29.66,4,0,10,0.02
2013-5-22,85,70,62,66,63,58,92,79,42,29.70,29.58,10,1,21,0.09
2013-5-23,66,54,43,61,51,39,96,90,79,30.12,29.65,3,0,12,0.26
2013-5-24,58,47,40,40,36,32,94,68,45,30.34,30.12,6,0,9,0.00
2013-5-25,68,52,35,42,37,33,95,62,31,30.40,30.26,6,0,12,0.00
2013-5-26,73,56,37,41,37,32,95,55,25,30.33,30.21,4,0,7,0.00
2013-5-27,60,51,44,50,44,32,96,76,43,30.25,30.00,3,0,8,0.71
2013-5-28,79,63,51,71,61,50,98,91,72,30.00,29.78,4,0,9,0.24
2013-5-29,86,76,68,67,65,62,87,69,46,29.95,29.75,5,1,12,0.00
2013-5-30,88,74,64,75,66,61,94,80,52,30.02,29.92,7,0,14,0.31
2013-5-31,82,73,68,71,67,65,95,82,63,29.96,29.83,4,0,14,0.17
2013-6-1,81,71,63,70,65,62,97,82,61,29.84,29.66,4,1,9,0.14
2013-6-2,72,66,55,66,58,46,94,77,62,29.94,29.62,5,1,9,0.02
2013-6-3,70,58,45,47,42,37,85,60,34,30.06,29.94,4,0,7,0.00
2013-6-4,75,60,49,51,45,31,88,60,36,30.17,30.05,4,0,7,0.00
2013-6-5,77,63,51,53,44,33,72,52,31,30.15,29.95,5,0,9,0.00
2013-6-6,73,62,56,57,49,42,75,64,53,29.97,29.82,2,0,6,0.00
2013-6-7,62,57,52,54,51,49,91,81,72,29.89,29.83,2,0,4,0.00
2013-6-8,74,64,56,56,53,51,85,71,48,30.05,29.88,2,0,5,0.00
2013-6-9,78,67,57,60,56,52,93,70,47,30.08,29.92,4,0,12,0.00
2013-6-10,70,65,61,68,64,57,98,95,76,29.92,29.70,1,0,4,0.84
2013-6-11,83,72,65,67,65,63,98,80,54,29.85,29.72,3,0,7,0.00
2013-6-12,77,70,62,69,65,61,96,86,73,29.89,29.60,3,0,7,0.25
2013-6-13,79,69,61,65,59,54,97,74,45,29.87,29.47,6,0,12,1.24
2013-6-14,80,68,60,59,56,51,85,65,40,30.03,29.88,4,0,7,0.00
2013-6-15,80,67,55,66,59,54,96,78,51,30.06,29.89,3,0,7,0.02
2013-6-16,84,72,63,68,63,53,96,76,43,29.90,29.74,4,1,8,0.36
2013-6-17,88,72,59,66,59,55,88,66,37,29.89,29.78,4,0,10,0.00
2013-6-18,76,66,57,61,54,41,91,68,42,30.04,29.83,2,0,6,0.00
2013-6-19,77,62,49,57,49,41,86,64,42,30.14,30.03,3,0,6,0.00
2013-6-20,82,67,52,60,55,50,96,68,41,30.19,30.12,3,0,7,0.00
2013-6-21,88,73,58,68,62,54,94,70,43,30.17,30.01,3,0,8,0.00
2013-6-22,88,74,68,75,67,60,96,79,59,30.06,29.94,6,0,12,1.32
2013-6-23,91,78,68,75,69,65,98,77,49,30.03,29.92,4,0,9,0.00
2013-6-24,89,78,68,73,69,65,93,74,55,30.02,29.87,3,0,8,0.00
2013-6-25,86,75,68,75,69,64,95,83,66,29.94,29.76,4,0,7,0.45
2013-6-26,84,74,67,74,69,66,97,86,66,29.86,29.70,2,0,5,0.22
2013-6-27,84,72,66,73,69,65,98,91,64,29.72,29.59,3,0,7,1.04
2013-6-28,76,67,62,69,64,59,98,91,68,29.60,29.47,4,0,8,0.24
2013-6-29,74,67,62,67,63,58,97,89,70,29.69,29.50,1,0,4,0.11
2013-6-30,81,70,60,65,59,49,92,72,45,29.89,29.69,2,0,10,0.00
2013-7-1,67,62,60,62,56,48,96,82,55,30.02,29.89,1,0,5,0.82
2013-7-2,76,66,59,65,61,57,95,84,67,30.04,29.97,2,0,5,0.00
2013-7-3,84,71,61,72,66,59,96,83,56,30.06,30.00,3,0,7,0.00
2013-7-4,82,74,70,70,68,66,94,83,60,30.09,30.03,2,0,5,0.00
2013-7-5,84,74,70,72,69,66,96,84,60,30.07,30.01,3,0,5,0.00
2013-7-6,84,74,68,73,70,67,97,88,66,30.07,29.95,3,0,5,0.24
2013-7-7,84,74,69,72,69,67,98,86,62,29.99,29.91,3,0,6,0.03
2013-7-8,82,73,67,76,70,66,97,91,71,30.00,29.93,3,0,5,0.19
2013-7-9,90,76,71,76,72,70,98,90,61,29.95,29.87,4,0,5,0.01
2013-7-10,87,76,66,80,71,60,98,86,60,29.89,29.72,5,0,9,0.09
2013-7-11,80,70,61,62,58,55,89,69,46,30.02,29.89,3,0,5,0.00
2013-7-12,83,70,57,66,60,55,94,74,46,30.12,30.02,3,0,6,0.00
2013-7-13,85,74,62,68,64,59,95,74,51,30.17,30.09,3,0,5,0.00
2013-7-14,90,77,67,75,69,64,96,77,56,30.21,30.16,2,0,6,0.00
2013-7-15,93,80,71,80,74,69,96,82,57,30.25,30.17,2,0,5,0.07
2013-7-16,89,81,76,80,77,75,97,87,66,30.25,30.18,3,0,5,0.00
2013-7-17,96,83,73,80,75,71,95,78,55,30.23,30.09,3,0,6,0.00
2013-7-18,94,82,73,82,75,71,96,82,51,30.11,29.91,4,0,6,0.45
2013-7-19,95,84,75,78,74,70,89,75,50,29.92,29.67,6,1,12,0.00
2013-7-20,88,77,70,74,68,61,98,76,45,29.87,29.67,7,0,13,0.46
2013-7-21,86,74,63,67,63,57,89,69,44,29.96,29.86,3,0,4,0.00
2013-7-22,84,74,69,70,67,62,92,79,53,29.91,29.71,2,0,4,0.00
2013-7-23,87,71,62,73,66,53,96,84,59,29.83,29.61,3,0,8,0.26
2013-7-24,76,66,56,57,52,49,82,63,44,30.01,29.83,3,0,6,0.00
2013-7-25,78,65,51,61,55,49,94,72,50,30.08,30.01,3,0,5,0.00
2013-7-26,80,68,56,62,59,55,96,74,50,30.07,29.87,3,0,5,0.00
2013-7-27,76,67,58,69,63,52,95,87,72,29.87,29.68,4,0,8,0.12
2013-7-28,69,59,51,57,53,49,96,81,58,29.96,29.80,4,0,9,0.00
2013-7-29,71,62,55,59,55,52,92,79,57,30.15,29.96,3,0,7,0.00
2013-7-30,81,66,52,63,58,51,98,77,46,30.21,30.09,2,0,6,0.00
2013-7-31,76,69,63,68,65,60,96,87,69,30.09,29.84,2,0,5,0.08
2013-8-1,82,69,63,67,62,56,96,80,45,29.88,29.82,3,0,6,0.00
2013-8-2,74,66,56,66,60,53,95,81,62,29.90,29.81,4,0,10,0.00
2013-8-3,80,70,58,64,58,52,98,70,39,30.00,29.86,4,0,6,0.00
2013-8-4,77,66,56,58,55,50,91,69,43,30.11,30.00,3,0,6,0.00
2013-8-5,73,66,58,60,55,49,79,69,55,30.09,29.93,3,0,5,0.00
2013-8-6,80,70,64,68,64,60,93,80,60,29.94,29.86,2,0,6,0.01
2013-8-7,87,73,66,73,68,64,96,83,57,29.88,29.78,2,0,5,0.03
2013-8-8,79,71,66,71,66,59,95,82,65,29.96,29.84,1,0,4,0.00
2013-8-9,84,71,62,63,58,54,81,65,40,29.96,29.90,3,0,5,0.00
2013-8-10,80,71,62,63,61,58,93,72,50,30.09,29.96,2,0,4,0.00
2013-8-11,83,69,56,65,59,53,94,72,45,30.09,29.98,2,0,4,0.00
2013-8-12,72,67,64,69,64,61,97,90,75,30.02,29.80,3,0,8,1.82
2013-8-13,69,63,54,65,54,47,97,75,50,30.02,29.78,5,0,10,0.02
2013-8-14,73,60,50,55,50,46,90,72,48,30.13,30.01,3,0,7,0.00
2013-8-15,76,64,49,57,53,48,98,71,46,30.15,30.06,2,0,5,0.00
2013-8-16,81,66,53,60,55,52,97,71,42,30.17,30.09,2,0,4,0.00
2013-8-17,82,67,54,62,57,52,97,73,38,30.23,30.15,3,0,5,0.00
2013-8-18,83,69,59,66,60,57,98,76,45,30.18,30.08,3,0,5,0.00
2013-8-19,86,71,58,65,60,56,97,74,41,30.09,30.00,2,0,5,0.00
2013-8-20,87,73,61,70,65,60,97,77,49,30.11,30.02,3,0,5,0.00
2013-8-21,88,75,63,71,67,62,97,76,53,30.10,29.95,3,0,7,0.00
2013-8-22,83,75,70,72,69,67,95,80,64,30.00,29.91,3,0,5,0.03
2013-8-23,87,73,62,68,57,49,90,62,29,30.16,29.98,3,0,5,0.00
2013-8-24,83,70,57,64,59,54,97,71,43,30.28,30.16,2,0,6,0.00
2013-8-25,89,73,57,67,62,55,97,72,44,30.27,30.10,3,0,7,0.00
2013-8-26,89,77,65,74,68,62,90,75,56,30.12,29.92,2,0,5,0.00
2013-8-27,83,77,72,77,73,70,97,89,76,29.95,29.79,4,0,6,0.60
2013-8-28,86,77,72,75,73,68,97,87,65,29.95,29.73,2,0,6,0.43
2013-8-29,89,75,66,75,70,65,97,86,56,30.03,29.95,2,0,5,0.08
2013-8-30,89,76,65,74,69,64,98,82,55,29.96,29.70,3,0,8,0.83
2013-8-31,83,74,70,72,70,66,98,87,67,29.79,29.67,2,0,5,0.01
2013-9-1,84,74,68,74,69,66,93,85,70,29.80,29.67,2,0,5,0.00
2013-9-2,78,71,62,70,63,53,96,78,57,29.86,29.67,4,0,8,0.00
2013-9-3,77,65,59,60,55,52,89,73,50,29.99,29.86,4,0,8,0.00
2013-9-4,83,68,54,65,59,52,96,75,48,30.05,29.96,3,0,10,0.00
2013-9-5,75,65,55,62,53,46,92,68,39,30.23,30.02,3,0,5,0.00
2013-9-6,78,61,47,56,48,35,97,68,27,30.25,30.05,3,0,8,0.00
2013-9-7,81,67,55,71,61,51,93,82,67,30.05,29.85,2,0,4,0.02
2013-9-8,77,70,57,67,60,51,92,74,47,30.03,29.88,3,0,7,0.00
2013-9-9,75,64,53,70,61,51,96,91,82,30.04,29.88,2,0,4,0.18
2013-9-10,95,81,68,77,72,67,97,75,43,29.96,29.85,3,0,7,0.00
2013-9-11,94,79,70,76,70,66,95,76,52,29.98,29.84,6,0,13,0.06
2013-9-12,80,70,58,68,62,50,97,79,45,29.91,29.79,4,0,10,0.00
2013-9-13,62,55,44,50,45,40,86,70,52,30.11,29.91,3,0,7,0.00
2013-9-14,71,56,39,50,43,38,97,67,34,30.18,30.08,2,0,4,0.00
2013-9-15,64,56,47,57,51,45,96,86,66,30.10,30.03,2,0,4,0.03
2013-9-16,66,57,48,55,50,42,97,80,52,30.35,30.10,3,0,5,0.00
2013-9-17,71,54,40,53,45,39,97,76,43,30.39,30.20,3,0,9,0.00
2013-9-18,76,60,46,60,53,45,97,81,50,30.20,30.02,3,0,7,0.00
2013-9-19,82,68,57,70,64,56,98,88,64,30.02,29.88,3,0,5,0.00
2013-9-20,83,72,68,73,68,66,97,90,67,29.90,29.69,4,0,8,0.68
2013-9-21,70,63,56,66,57,46,98,81,52,29.83,29.63,4,0,9,0.17
2013-9-22,63,55,50,46,44,40,82,66,52,30.06,29.83,4,0,8,0.00
2013-9-23,65,53,43,49,44,41,95,75,48,30.17,30.05,3,0,5,0.00
2013-9-24,71,54,44,54,48,43,97,82,52,30.13,29.98,3,0,6,0.00
2013-9-25,74,58,47,58,51,46,98,82,51,30.00,29.91,3,0,5,0.00
2013-9-26,80,61,48,56,50,46,98,74,37,30.11,29.97,2,0,5,0.00
2013-9-27,78,60,48,62,54,47,98,82,49,30.21,30.12,4,0,8,0.00
2013-9-28,78,63,52,63,56,51,98,78,46,30.17,29.99,4,0,9,0.00
2013-9-29,64,62,59,62,58,55,97,89,77,30.00,29.92,1,0,4,0.07
2013-9-30,74,63,58,60,57,54,98,84,51,29.99,29.89,4,0,8,0.00
2013-10-1,72,60,52,64,58,50,98,92,75,30.00,29.91,3,0,6,0.00
2013-10-2,82,67,57,61,56,51,97,74,35,30.04,29.93,3,0,5,0.00
2013-10-3,77,66,56,69,62,53,96,87,75,30.03,29.89,4,0,8,0.00
2013-10-4,81,72,65,69,66,63,95,84,62,29.98,29.91,2,0,5,0.00
2013-10-5,74,69,65,69,66,64,97,91,79,30.00,29.83,3,0,7,0.09
2013-10-6,71,66,57,68,64,56,97,95,85,29.83,29.59,3,0,8,0.22
2013-10-7,60,52,44,56,47,42,97,85,67,30.10,29.65,4,0,10,0.01
2013-10-8,69,53,41,50,44,40,98,77,39,30.28,30.10,4,0,7,0.00
2013-10-9,73,55,43,57,47,42,98,77,43,30.30,30.20,3,0,8,0.00
2013-10-10,75,56,43,56,47,42,98,77,33,30.21,30.11,3,0,5,0.00
2013-10-11,76,57,42,55,48,41,98,77,38,30.13,30.05,3,0,4,0.00
2013-10-12,79,61,49,63,55,48,98,83,36,30.08,30.01,4,0,8,0.00
2013-10-13,71,61,50,59,48,40,97,68,33,30.31,30.05,3,0,6,0.00
2013-10-14,68,52,43,47,44,41,97,76,45,30.38,30.25,2,0,5,0.00
2013-10-15,63,54,42,61,51,41,98,92,83,30.26,29.82,4,0,8,0.04
2013-10-16,64,58,52,61,52,45,97,81,55,29.89,29.78,5,1,9,0.01
2013-10-17,52,50,45,50,47,43,96,91,82,29.88,29.74,2,0,6,0.12
2013-10-18,66,52,41,49,44,40,96,78,47,29.91,29.82,3,0,7,0.00
2013-10-19,49,43,38,46,41,36,96,93,81,29.89,29.73,4,0,9,0.19
2013-10-20,61,48,38,45,41,36,97,78,47,29.92,29.83,5,0,10,0.02
2013-10-21,56,50,39,49,44,36,93,78,64,29.86,29.78,5,1,10,0.07
2013-10-22,52,42,31,36,33,28,91,71,49,29.92,29.83,4,0,12,0.01
2013-10-23,49,40,33,36,32,27,95,77,45,29.93,29.80,4,0,7,0.00
2013-10-24,48,38,31,36,32,26,95,78,46,30.17,29.91,4,1,8,0.01
2013-10-25,50,39,32,36,32,28,94,77,48,30.32,30.12,4,0,8,0.00
2013-10-26,52,42,37,39,33,29,96,69,57,30.12,29.78,8,1,16,0.03
2013-10-27,55,41,31,38,34,30,96,78,47,30.07,29.97,3,0,7,0.01
2013-10-28,53,42,32,42,35,29,92,78,66,30.38,30.02,3,0,6,0.00
2013-10-29,53,43,34,40,36,31,90,75,59,30.43,30.24,3,0,5,0.00
2013-10-30,65,48,33,52,41,32,97,80,47,30.23,29.95,3,0,7,0.21
2013-10-31,62,59,53,61,58,52,98,96,92,29.95,29.13,6,2,12,1.70
2013-11-1,61,49,46,60,45,41,96,85,75,29.65,29.10,8,2,15,0.04
2013-11-2,48,45,38,45,41,33,97,88,77,30.08,29.63,10,1,14,0.11
2013-11-3,49,39,33,37,33,31,94,80,58,30.44,30.08,1,0,9,0.00
2013-11-4,49,42,34,38,34,29,92,73,47,30.47,30.30,14,2,15,0.00
2013-11-5,56,49,41,48,44,37,89,81,70,30.36,30.16,7,1,9,0.00
2013-11-6,58,53,44,53,47,39,91,81,65,30.16,29.78,16,4,20,0.09
2013-11-7,46,41,37,39,32,26,90,71,50,30.12,29.95,16,5,26,0.01
2013-11-8,47,38,32,33,29,26,89,73,45,30.28,30.11,10,2,10,0.00
2013-11-9,57,49,38,42,37,31,81,64,52,30.18,29.79,19,4,26,0.00
2013-11-10,49,43,34,41,32,29,84,65,53,30.25,29.88,19,5,24,0.00
2013-11-11,44,37,29,40,32,21,94,82,73,30.30,30.01,12,2,15,0.06
2013-11-12,35,29,24,24,20,17,81,68,50,30.55,30.30,18,4,20,0.00
2013-11-13,41,30,19,25,20,16,90,70,43,30.55,30.17,15,3,20,0.00
2013-11-14,52,40,29,28,24,20,72,54,35,30.19,30.00,13,4,21,0.00
2013-11-15,52,44,38,32,29,24,69,55,44,30.07,29.99,10,2,12,0.00
2013-11-16,57,47,33,52,42,30,94,83,66,30.10,29.80,12,3,15,0.00
2013-11-17,64,57,48,60,53,42,95,86,70,29.80,29.23,33,8,33,1.07
2013-11-18,48,42,35,42,32,25,78,70,64,30.11,29.46,25,11,33,0.00
2013-11-19,44,36,28,26,24,22,86,64,43,30.41,30.11,13,3,15,0.00
2013-11-20,46,36,25,34,27,23,95,73,42,30.44,30.24,17,4,18,0.00
2013-11-21,46,43,40,43,38,30,97,83,63,30.28,30.16,11,2,14,0.29
2013-11-22,46,40,29,45,38,25,97,90,75,30.35,30.11,14,2,21,0.09
2013-11-23,31,25,18,25,18,8,92,74,47,30.53,30.26,19,4,24,0.00
2013-11-24,26,19,14,15,11,9,85,70,50,30.61,30.45,14,4,15,0.00
2013-11-25,32,26,18,25,17,12,86,71,56,30.45,30.11,15,4,21,0.00
2013-11-26,36,32,30,29,27,25,86,81,73,30.12,29.92,10,2,14,0.00
2013-11-27,31,25,20,26,16,11,83,67,53,30.20,29.90,18,6,23,0.00
2013-11-28,29,23,16,22,17,12,90,77,63,30.43,30.20,9,1,12,0.01
2013-11-29,36,24,14,24,19,12,94,81,54,30.67,30.43,7,0,8,0.00
2013-11-30,47,35,26,29,26,22,86,72,50,30.58,30.10,8,2,12,0.00
2013-12-1,47,36,30,36,30,26,94,80,66,30.10,29.96,10,1,10,0.00
2013-12-2,41,33,24,32,27,21,94,79,54,29.99,29.88,6,0,8,0.00
2013-12-3,38,34,24,37,32,22,95,90,82,29.91,29.84,7,1,8,0.07
2013-12-4,57,46,37,53,44,36,97,91,85,29.89,29.62,18,2,20,0.01
2013-12-5,60,45,32,55,37,22,87,75,64,30.13,29.59,20,6,23,0.00
2013-12-6,32,28,22,23,19,14,75,69,65,30.40,30.10,12,3,15,0.00
2013-12-7,27,20,14,15,11,9,85,68,51,30.63,30.40,13,2,16,0.00
2013-12-8,30,21,12,28,17,8,95,82,71,30.62,30.01,12,1,15,0.00
2013-12-9,30,27,20,29,22,14,95,84,71,30.11,29.89,15,5,20,0.00
2013-12-10,23,19,12,14,10,4,79,70,51,30.21,29.97,16,4,23,0.00
2013-12-11,24,18,9,20,12,2,87,78,67,30.48,30.20,12,3,20,0.00
2013-12-12,18,13,4,12,5,-1,87,72,52,30.48,30.21,11,3,16,0.00
2013-12-13,29,23,17,22,17,11,81,78,72,30.29,30.17,8,1,12,0.00
2013-12-14,23,21,19,20,18,14,92,89,73,30.28,29.81,6,1,10,0.00
2013-12-15,26,21,15,22,17,10,92,85,70,30.05,29.81,20,4,23,0.00
2013-12-16,23,14,3,16,9,0,92,83,63,30.20,30.02,8,1,9,0.00
2013-12-17,26,21,14,22,18,12,93,89,82,30.02,29.90,11,2,16,0.00
2013-12-18,32,25,20,24,20,16,95,83,68,30.13,29.92,11,2,14,0.00
2013-12-19,41,34,27,34,29,19,91,79,69,29.99,29.88,10,1,14,0.12
2013-12-20,43,37,34,42,36,33,98,97,92,29.90,29.71,6,0,8,0.27
2013-12-21,35,34,33,35,33,32,98,97,96,29.85,29.64,7,0,9,0.67
2013-12-22,39,35,33,37,34,32,98,94,86,29.95,29.53,17,2,24,0.20
2013-12-23,35,30,23,33,24,16,95,80,68,30.30,29.95,14,4,16,0.00
2013-12-24,23,17,10,17,10,6,88,74,58,30.57,30.29,15,4,18,0.00
2013-12-25,25,20,10,23,16,7,91,86,77,30.52,30.14,13,2,18,0.00
2013-12-26,29,26,25,26,22,18,94,83,67,30.31,30.05,17,3,18,0.00
2013-12-27,40,34,26,33,29,21,86,82,73,30.32,30.08,13,2,20,0.05
2013-12-28,49,40,33,37,34,30,89,77,63,30.12,29.90,14,3,16,0.00
2013-12-29,45,36,24,34,29,18,90,77,65,29.99,29.67,13,4,20,0.00
2013-12-30,24,20,15,18,11,6,85,70,60,30.28,29.99,19,3,21,0.00
2013-12-31,21,18,15,17,13,9,90,81,69,30.35,30.07,17,4,18,0.00
2014-1-1,17,15,13,14,11,9,90,87,84,30.41,30.23,7,1,9,0.00
2014-1-2,16,13,5,13,9,-2,90,84,73,30.28,30.08,13,3,20,0.00